Time;durP1;ratioP1;P1;durP2;ratioP2;P2;SDS_P1;SDS_P2;PMS_P1;PMS_P2;Temp;Humidity;BMP_temperature;BMP_pressure;BME280_temperature;BME280_humidity;BME280_pressure;Samples;Min_cycle;Max_cycle;Signal;HPM_P1;HPM_P2
2021/03/20 00:01:08;;;;;;;1.92;1.75;;;;;;;;;;5037796;28;20699;-84
2021/03/20 00:03:35;;;;;;;1.55;1.45;;;;;;;;;;5037042;28;20241;-83
2021/03/20 00:06:03;;;;;;;2.17;1.92;;;;;;;;;;5038231;28;20194;-83
2021/03/20 00:08:30;;;;;;;2.08;1.50;;;;;;;;;;5036447;28;20229;-83
2021/03/20 00:10:57;;;;;;;1.70;1.58;;;;;;;;;;5036321;28;20556;-83
2021/03/20 00:13:25;;;;;;;2.45;1.60;;;;;;;;;;5036944;28;20190;-83
2021/03/20 00:15:53;;;;;;;1.85;1.75;;;;;;;;;;5036495;28;20190;-84
2021/03/20 00:18:22;;;;;;;2.20;1.65;;;;;;;;;;5036657;28;20214;-84
2021/03/20 00:20:51;;;;;;;2.20;1.58;;;;;;;;;;5036230;28;20218;-83
2021/03/20 00:23:18;;;;;;;3.20;1.60;;;;;;;;;;5036603;28;20268;-83
2021/03/20 00:25:45;;;;;;;1.10;1.10;;;;;;;;;;5036822;28;20661;-82
2021/03/20 00:28:21;;;;;;;1.52;1.00;;;;;;;;;;5036961;28;20229;-84
2021/03/20 00:30:48;;;;;;;1.20;1.10;;;;;;;;;;5036555;28;20183;-83
2021/03/20 00:33:16;;;;;;;1.63;1.52;;;;;;;;;;5036925;28;20703;-83
2021/03/20 00:35:44;;;;;;;1.70;1.50;;;;;;;;;;5036347;28;20178;-83
2021/03/20 00:38:11;;;;;;;2.95;1.50;;;;;;;;;;5035955;28;20226;-83
2021/03/20 00:40:39;;;;;;;1.67;1.58;;;;;;;;;;5035809;28;20229;-83
2021/03/20 00:43:06;;;;;;;1.40;1.30;;;;;;;;;;5036067;28;20198;-83
2021/03/20 00:45:33;;;;;;;1.33;1.15;;;;;;;;;;5036089;28;20254;-83
2021/03/20 00:48:06;;;;;;;1.73;1.63;;;;;;;;;;5036138;28;20705;-83
2021/03/20 00:50:33;;;;;;;2.00;1.80;;;;;;;;;;5036354;28;20198;-84
2021/03/20 00:53:01;;;;;;;1.42;1.33;;;;;;;;;;5036309;28;20202;-84
2021/03/20 00:55:28;;;;;;;1.73;1.63;;;;;;;;;;5036162;28;20202;-83
2021/03/20 00:57:55;;;;;;;2.22;1.60;;;;;;;;;;5035929;28;20249;-83
2021/03/20 01:00:26;;;;;;;3.90;1.58;;;;;;;;;;5035645;28;20511;-83
2021/03/20 01:02:53;;;;;;;1.70;1.42;;;;;;;;;;5036087;28;20198;-83
2021/03/20 01:05:21;;;;;;;2.15;1.20;;;;;;;;;;5035801;28;20195;-82
2021/03/20 01:07:48;;;;;;;1.00;0.93;;;;;;;;;;5035309;28;20229;-83
2021/03/20 01:10:21;;;;;;;1.70;1.60;;;;;;;;;;5035387;28;20186;-83
2021/03/20 01:12:48;;;;;;;1.60;1.30;;;;;;;;;;5035636;28;20186;-82
2021/03/20 01:15:18;;;;;;;2.67;2.28;;;;;;;;;;5035786;28;20195;-83
2021/03/20 01:17:46;;;;;;;1.60;1.40;;;;;;;;;;5035575;28;20226;-82
2021/03/20 01:20:15;;;;;;;2.83;1.65;;;;;;;;;;5034935;28;20256;-83
2021/03/20 01:22:41;;;;;;;1.17;1.08;;;;;;;;;;5035735;28;20191;-83
2021/03/20 01:25:10;;;;;;;2.88;1.35;;;;;;;;;;5035650;28;20625;-82
2021/03/20 01:27:38;;;;;;;3.22;1.23;;;;;;;;;;5035200;28;20226;-83
2021/03/20 01:30:09;;;;;;;2.35;1.67;;;;;;;;;;5027207;28;20244;-84
2021/03/20 01:32:36;;;;;;;2.10;1.67;;;;;;;;;;5035403;28;20202;-83
2021/03/20 01:35:03;;;;;;;1.67;1.40;;;;;;;;;;5035208;28;20191;-82
2021/03/20 01:37:30;;;;;;;2.67;1.48;;;;;;;;;;5035216;28;20218;-82
2021/03/20 01:39:57;;;;;;;1.98;1.75;;;;;;;;;;5035962;28;20260;-83
2021/03/20 01:42:24;;;;;;;3.40;1.08;;;;;;;;;;5035013;28;20190;-83
2021/03/20 01:45:11;;;;;;;0.98;0.90;;;;;;;;;;5034385;28;20668;-82
2021/03/20 01:47:52;;;;;;;1.88;1.05;;;;;;;;;;5035037;28;20229;-83
2021/03/20 01:50:32;;;;;;;2.03;1.17;;;;;;;;;;5034500;28;20202;-83
2021/03/20 01:53:04;;;;;;;1.98;1.40;;;;;;;;;;5034089;28;20236;-82
2021/03/20 01:55:31;;;;;;;1.65;1.20;;;;;;;;;;5034389;28;20214;-83
2021/03/20 01:58:00;;;;;;;2.92;1.30;;;;;;;;;;5033829;28;20607;-82
2021/03/20 02:00:34;;;;;;;1.20;1.13;;;;;;;;;;5034120;28;20744;-83
2021/03/20 02:03:03;;;;;;;1.23;1.10;;;;;;;;;;5033868;28;20668;-83
2021/03/20 02:05:33;;;;;;;1.40;1.30;;;;;;;;;;5033887;28;20197;-83
2021/03/20 02:08:01;;;;;;;2.53;1.30;;;;;;;;;;5033808;28;20225;-83
2021/03/20 02:10:32;;;;;;;1.30;1.20;;;;;;;;;;5034227;28;20186;-83
2021/03/20 02:13:04;;;;;;;2.92;1.23;;;;;;;;;;5033914;28;20194;-82
2021/03/20 02:15:37;;;;;;;0.98;0.95;;;;;;;;;;5033934;28;20236;-83
2021/03/20 02:18:12;;;;;;;3.95;1.13;;;;;;;;;;5033550;28;20215;-82
2021/03/20 02:21:07;;;;;;;1.80;1.30;;;;;;;;;;5033980;28;20210;-82
2021/03/20 02:24:15;;;;;;;3.03;1.00;;;;;;;;;;5033399;28;20681;-81
2021/03/20 02:27:39;;;;;;;2.88;1.38;;;;;;;;;;5033202;28;20309;-82
2021/03/20 02:30:23;;;;;;;1.30;1.20;;;;;;;;;;5033521;28;20198;-83
2021/03/20 02:33:02;;;;;;;1.17;1.05;;;;;;;;;;5033749;28;20186;-82
2021/03/20 02:35:34;;;;;;;1.35;1.20;;;;;;;;;;5033457;28;20197;-81
2021/03/20 02:38:12;;;;;;;1.08;1.00;;;;;;;;;;5033523;28;20222;-82
2021/03/20 02:40:45;;;;;;;2.28;1.35;;;;;;;;;;5033365;28;20210;-82
2021/03/20 02:43:20;;;;;;;1.80;1.30;;;;;;;;;;5036516;28;20198;-83
2021/03/20 02:45:53;;;;;;;1.88;1.67;;;;;;;;;;5038860;28;20558;-82
2021/03/20 02:48:26;;;;;;;2.50;1.10;;;;;;;;;;5035509;28;20709;-83
2021/03/20 02:51:01;;;;;;;1.55;1.02;;;;;;;;;;5036104;28;20182;-83
2021/03/20 02:53:33;;;;;;;1.33;1.20;;;;;;;;;;5035603;28;20209;-82
2021/03/20 02:56:02;;;;;;;1.63;1.25;;;;;;;;;;5035441;28;20191;-84
2021/03/20 02:58:35;;;;;;;1.83;1.30;;;;;;;;;;5035442;28;20226;-83
2021/03/20 03:01:06;;;;;;;1.27;1.17;;;;;;;;;;5035297;28;20210;-83
2021/03/20 03:03:36;;;;;;;1.65;1.40;;;;;;;;;;5035153;28;20205;-82
2021/03/20 03:06:08;;;;;;;1.30;1.30;;;;;;;;;;5035095;28;20241;-83
2021/03/20 03:08:40;;;;;;;2.28;1.20;;;;;;;;;;5035281;28;20218;-81
2021/03/20 03:11:10;;;;;;;1.75;1.10;;;;;;;;;;5035563;28;20191;-83
2021/03/20 03:13:43;;;;;;;2.22;1.50;;;;;;;;;;5035333;28;20179;-82
2021/03/20 03:16:14;;;;;;;1.23;1.10;;;;;;;;;;5034686;28;20198;-81
2021/03/20 03:18:45;;;;;;;1.25;1.15;;;;;;;;;;5033670;28;20237;-82
2021/03/20 03:21:14;;;;;;;1.63;1.00;;;;;;;;;;5034916;28;20227;-82
2021/03/20 03:23:43;;;;;;;2.03;1.27;;;;;;;;;;5035600;28;20194;-83
2021/03/20 03:26:13;;;;;;;1.27;1.20;;;;;;;;;;5035308;28;20191;-82
2021/03/20 03:28:45;;;;;;;1.02;0.93;;;;;;;;;;5035659;28;20183;-82
2021/03/20 03:31:16;;;;;;;2.53;1.20;;;;;;;;;;5034956;28;20183;-82
2021/03/20 03:33:51;;;;;;;2.05;1.42;;;;;;;;;;5035339;28;20272;-83
2021/03/20 03:36:19;;;;;;;1.27;1.23;;;;;;;;;;5035395;28;20186;-82
2021/03/20 03:38:54;;;;;;;1.98;1.00;;;;;;;;;;5034980;28;20183;-82
2021/03/20 03:41:24;;;;;;;0.90;0.90;;;;;;;;;;5034603;28;20202;-82
2021/03/20 03:43:52;;;;;;;1.52;1.42;;;;;;;;;;5035122;28;20191;-82
2021/03/20 03:46:23;;;;;;;1.42;1.10;;;;;;;;;;5034272;28;20191;-83
2021/03/20 03:48:53;;;;;;;1.90;1.30;;;;;;;;;;5034647;28;20716;-82
2021/03/20 03:51:21;;;;;;;1.15;1.10;;;;;;;;;;5034183;28;20187;-82
2021/03/20 03:53:48;;;;;;;1.40;1.10;;;;;;;;;;5033788;28;20190;-81
2021/03/20 03:56:37;;;;;;;2.13;1.50;;;;;;;;;;5037211;28;20209;-82
2021/03/20 03:59:12;;;;;;;1.42;1.33;;;;;;;;;;5037412;28;20298;-82
2021/03/20 04:01:50;;;;;;;2.05;1.30;;;;;;;;;;5037824;28;20587;-82
2021/03/20 04:04:29;;;;;;;1.35;1.25;;;;;;;;;;5037948;28;20190;-82
2021/03/20 04:07:19;;;;;;;1.30;1.20;;;;;;;;;;5037113;28;20226;-81
2021/03/20 04:09:56;;;;;;;2.30;1.63;;;;;;;;;;5037274;28;20206;-83
2021/03/20 04:12:31;;;;;;;1.90;1.38;;;;;;;;;;5037314;28;20248;-82
2021/03/20 04:15:03;;;;;;;3.72;1.35;;;;;;;;;;5036628;28;20209;-83
2021/03/20 04:17:40;;;;;;;1.13;1.13;;;;;;;;;;5036026;28;20563;-82
2021/03/20 04:20:16;;;;;;;2.15;1.23;;;;;;;;;;5035604;28;20226;-81
2021/03/20 04:22:53;;;;;;;4.03;1.00;;;;;;;;;;5036136;28;20182;-82
2021/03/20 04:25:28;;;;;;;1.30;1.20;;;;;;;;;;5038420;28;20194;-83
2021/03/20 04:28:09;;;;;;;0.95;0.90;;;;;;;;;;5037122;28;20225;-82
2021/03/20 04:30:39;;;;;;;1.15;1.05;;;;;;;;;;5037017;28;20182;-82
2021/03/20 04:33:11;;;;;;;2.20;1.38;;;;;;;;;;5036792;28;20193;-81
2021/03/20 04:35:45;;;;;;;3.70;1.35;;;;;;;;;;5037276;28;20233;-82
2021/03/20 04:38:12;;;;;;;1.50;1.40;;;;;;;;;;5036741;28;20218;-82
2021/03/20 04:40:44;;;;;;;1.23;1.17;;;;;;;;;;5036576;28;20777;-81
2021/03/20 04:43:14;;;;;;;1.38;1.00;;;;;;;;;;5037355;28;20196;-82
2021/03/20 04:45:43;;;;;;;1.02;1.00;;;;;;;;;;5036599;28;20190;-82
2021/03/20 04:48:16;;;;;;;1.40;1.30;;;;;;;;;;5036795;28;20214;-81
2021/03/20 04:50:47;;;;;;;1.63;1.13;;;;;;;;;;5036931;28;20186;-82
2021/03/20 04:53:15;;;;;;;1.00;1.00;;;;;;;;;;5036969;28;20277;-82
2021/03/20 04:55:43;;;;;;;3.13;1.30;;;;;;;;;;5036076;28;20245;-81
2021/03/20 04:58:17;;;;;;;1.95;1.77;;;;;;;;;;5035942;28;20227;-81
2021/03/20 05:00:48;;;;;;;1.65;1.38;;;;;;;;;;5036018;28;20202;-81
2021/03/20 05:03:21;;;;;;;2.28;1.30;;;;;;;;;;5036674;28;20202;-82
2021/03/20 05:05:50;;;;;;;1.65;1.55;;;;;;;;;;5035341;28;20195;-81
2021/03/20 05:08:21;;;;;;;1.40;1.30;;;;;;;;;;5035842;28;20284;-82
2021/03/20 05:10:53;;;;;;;2.22;2.03;;;;;;;;;;5035790;28;20178;-80
2021/03/20 05:13:33;;;;;;;1.33;1.23;;;;;;;;;;5036542;28;20197;-81
2021/03/20 05:16:03;;;;;;;1.83;1.70;;;;;;;;;;5035477;28;20191;-82
2021/03/20 05:18:30;;;;;;;2.85;1.10;;;;;;;;;;5035051;28;20576;-82
2021/03/20 05:20:58;;;;;;;4.75;1.42;;;;;;;;;;5034957;28;20233;-82
2021/03/20 05:23:25;;;;;;;2.03;1.23;;;;;;;;;;5034980;28;20228;-82
2021/03/20 05:25:52;;;;;;;3.28;1.95;;;;;;;;;;5035342;28;20649;-82
2021/03/20 05:28:19;;;;;;;2.42;1.65;;;;;;;;;;5034731;28;20226;-81
2021/03/20 05:30:47;;;;;;;1.50;1.00;;;;;;;;;;5035156;28;20646;-82
2021/03/20 05:33:14;;;;;;;3.95;1.98;;;;;;;;;;5036332;28;20187;-83
2021/03/20 05:35:41;;;;;;;4.22;1.67;;;;;;;;;;5036779;28;20641;-81
2021/03/20 05:38:09;;;;;;;2.60;1.27;;;;;;;;;;5033417;28;20583;-82
2021/03/20 05:40:36;;;;;;;2.35;1.38;;;;;;;;;;5034520;28;20187;-82
2021/03/20 05:43:28;;;;;;;1.75;1.40;;;;;;;;;;5035314;28;20608;-81
2021/03/20 05:46:05;;;;;;;1.40;1.30;;;;;;;;;;5034702;28;20708;-83
2021/03/20 05:48:37;;;;;;;1.00;1.00;;;;;;;;;;5035947;28;20230;-82
2021/03/20 05:51:20;;;;;;;1.25;1.15;;;;;;;;;;5035648;28;20200;-82
2021/03/20 05:54:06;;;;;;;2.63;1.40;;;;;;;;;;5034214;28;20182;-82
2021/03/20 05:56:41;;;;;;;1.70;1.23;;;;;;;;;;5034460;28;20794;-82
2021/03/20 05:59:32;;;;;;;2.35;1.13;;;;;;;;;;5034764;28;20193;-82
2021/03/20 06:02:32;;;;;;;1.50;1.27;;;;;;;;;;5033198;28;20226;-82
2021/03/20 06:05:14;;;;;;;1.33;1.20;;;;;;;;;;5033423;28;20187;-82
2021/03/20 06:07:56;;;;;;;2.88;1.30;;;;;;;;;;5033145;28;20268;-82
2021/03/20 06:10:47;;;;;;;2.40;1.80;;;;;;;;;;5034018;28;20191;-82
2021/03/20 06:13:40;;;;;;;2.05;1.35;;;;;;;;;;5034253;28;20198;-82
2021/03/20 06:16:30;;;;;;;2.47;1.27;;;;;;;;;;5031000;28;20202;-82
2021/03/20 06:19:59;;;;;;;6.90;1.58;;;;;;;;;;5034028;28;20775;-82
2021/03/20 06:22:57;;;;;;;2.58;1.52;;;;;;;;;;5013340;28;20719;-83
2021/03/20 06:25:57;;;;;;;1.50;1.40;;;;;;;;;;5033343;28;20206;-82
2021/03/20 06:28:33;;;;;;;2.33;1.05;;;;;;;;;;5033290;28;20225;-82
2021/03/20 06:31:10;;;;;;;1.92;1.50;;;;;;;;;;5034135;28;20245;-83
2021/03/20 06:33:46;;;;;;;1.67;1.23;;;;;;;;;;5032694;28;20179;-82
2021/03/20 06:36:20;;;;;;;2.08;1.45;;;;;;;;;;5032523;28;20194;-82
2021/03/20 06:38:51;;;;;;;2.20;1.48;;;;;;;;;;5032750;28;20189;-82
2021/03/20 06:41:28;;;;;;;2.17;1.27;;;;;;;;;;5035716;28;20229;-82
2021/03/20 06:44:35;;;;;;;1.58;1.10;;;;;;;;;;5036047;28;20210;-82
2021/03/20 06:47:02;;;;;;;1.40;1.30;;;;;;;;;;5032084;28;20210;-82
2021/03/20 06:49:42;;;;;;;1.20;1.10;;;;;;;;;;5032243;28;20189;-82
2021/03/20 06:52:18;;;;;;;2.30;1.15;;;;;;;;;;5032464;28;20637;-82
2021/03/20 06:54:48;;;;;;;2.47;1.63;;;;;;;;;;5032529;28;20655;-82
2021/03/20 06:57:18;;;;;;;1.92;1.30;;;;;;;;;;5033014;28;20242;-83
2021/03/20 06:59:45;;;;;;;5.20;1.42;;;;;;;;;;5032228;28;20190;-83
2021/03/20 07:02:24;;;;;;;1.17;1.10;;;;;;;;;;5032774;28;20680;-83
2021/03/20 07:05:11;;;;;;;1.40;1.00;;;;;;;;;;5032687;28;20189;-82
2021/03/20 07:07:50;;;;;;;2.97;1.30;;;;;;;;;;5032112;28;20257;-83
2021/03/20 07:10:33;;;;;;;1.50;1.35;;;;;;;;;;5032689;28;20550;-83
2021/03/20 07:13:22;;;;;;;4.35;1.98;;;;;;;;;;5032392;28;20190;-82
2021/03/20 07:16:09;;;;;;;1.02;1.00;;;;;;;;;;5032347;28;20656;-83
2021/03/20 07:18:42;;;;;;;2.88;1.70;;;;;;;;;;5031942;28;20234;-83
2021/03/20 07:21:34;;;;;;;4.43;1.48;;;;;;;;;;5032336;28;20190;-83
2021/03/20 07:24:10;;;;;;;1.75;1.17;;;;;;;;;;5034410;28;20241;-83
2021/03/20 07:26:52;;;;;;;1.05;0.95;;;;;;;;;;5032884;28;20226;-83
2021/03/20 07:29:21;;;;;;;1.80;1.58;;;;;;;;;;5036612;28;20197;-83
2021/03/20 07:31:58;;;;;;;1.80;1.15;;;;;;;;;;5037250;28;20205;-83
2021/03/20 07:34:31;;;;;;;4.57;1.60;;;;;;;;;;5037937;28;20182;-83
2021/03/20 07:37:10;;;;;;;6.93;1.65;;;;;;;;;;5038060;28;20602;-84
2021/03/20 07:39:47;;;;;;;3.03;1.27;;;;;;;;;;5039940;28;20187;-83
2021/03/20 07:42:29;;;;;;;1.83;1.48;;;;;;;;;;5040445;28;20579;-84
2021/03/20 07:45:00;;;;;;;1.98;1.42;;;;;;;;;;5040105;28;20191;-84
2021/03/20 07:47:30;;;;;;;2.30;2.00;;;;;;;;;;5040537;28;20223;-84
2021/03/20 07:50:20;;;;;;;1.48;1.20;;;;;;;;;;5040352;28;20233;-84
2021/03/20 07:53:02;;;;;;;1.75;1.48;;;;;;;;;;5044281;28;20229;-85
2021/03/20 07:55:36;;;;;;;2.00;1.40;;;;;;;;;;5042565;28;20313;-84
2021/03/20 07:58:04;;;;;;;1.95;1.52;;;;;;;;;;5042635;28;20219;-84
2021/03/20 08:00:36;;;;;;;3.17;1.30;;;;;;;;;;5040492;28;20298;-85
2021/03/20 08:03:10;;;;;;;1.42;0.90;;;;;;;;;;5038656;28;20206;-85
2021/03/20 08:05:39;;;;;;;1.65;1.55;;;;;;;;;;5038606;28;20217;-85
2021/03/20 08:08:21;;;;;;;1.10;1.00;;;;;;;;;;5037133;28;20214;-84
2021/03/20 08:10:52;;;;;;;2.83;1.30;;;;;;;;;;5037799;28;20178;-84
2021/03/20 08:13:33;;;;;;;3.08;1.23;;;;;;;;;;5038143;28;20195;-84
2021/03/20 08:16:01;;;;;;;2.03;1.27;;;;;;;;;;5037587;28;20633;-84
2021/03/20 08:18:30;;;;;;;1.85;1.17;;;;;;;;;;5038501;28;20572;-83
2021/03/20 08:21:36;;;;;;;1.33;1.02;;;;;;;;;;5036862;28;20194;-84
2021/03/20 08:24:38;;;;;;;1.30;1.20;;;;;;;;;;5037656;28;20202;-86
2021/03/20 08:27:16;;;;;;;1.15;1.02;;;;;;;;;;5029263;28;20233;-85
2021/03/20 08:30:03;;;;;;;1.33;1.23;;;;;;;;;;5038754;28;20218;-85
2021/03/20 08:32:45;;;;;;;1.35;1.25;;;;;;;;;;5036445;28;20252;-84
2021/03/20 08:35:18;;;;;;;0.80;0.80;;;;;;;;;;5035206;28;20202;-84
2021/03/20 08:38:03;;;;;;;1.52;1.20;;;;;;;;;;5034634;28;20269;-85
2021/03/20 08:40:43;;;;;;;1.00;1.00;;;;;;;;;;5033257;28;20202;-85
2021/03/20 08:43:41;;;;;;;3.08;2.00;;;;;;;;;;5032916;28;20646;-85
2021/03/20 08:46:18;;;;;;;2.35;1.70;;;;;;;;;;5031359;28;20248;-84
2021/03/20 08:48:51;;;;;;;1.95;1.83;;;;;;;;;;5033154;28;20621;-85
2021/03/20 08:51:36;;;;;;;2.35;1.95;;;;;;;;;;5032986;28;20555;-85
2021/03/20 08:54:17;;;;;;;4.90;2.28;;;;;;;;;;5032884;28;20194;-85
2021/03/20 08:57:03;;;;;;;4.10;2.80;;;;;;;;;;5032337;28;20267;-84
2021/03/20 08:59:34;;;;;;;4.20;2.85;;;;;;;;;;5050405;28;20195;-84
2021/03/20 09:02:11;;;;;;;3.03;1.90;;;;;;;;;;5052362;28;20186;-85
2021/03/20 09:04:40;;;;;;;3.13;2.47;;;;;;;;;;5052635;28;20188;-84
2021/03/20 09:07:15;;;;;;;2.00;1.70;;;;;;;;;;5052443;28;20222;-84
2021/03/20 09:09:46;;;;;;;2.33;2.00;;;;;;;;;;5047353;28;20186;-84
2021/03/20 09:12:20;;;;;;;2.60;1.88;;;;;;;;;;5035811;28;20187;-84
2021/03/20 09:14:50;;;;;;;3.97;2.20;;;;;;;;;;5038134;28;20190;-84
2021/03/20 09:17:20;;;;;;;2.13;1.80;;;;;;;;;;5038203;28;20229;-85
2021/03/20 09:19:52;;;;;;;2.33;1.65;;;;;;;;;;5036616;28;20241;-85
2021/03/20 09:22:22;;;;;;;1.85;1.58;;;;;;;;;;5018056;28;20599;-84
2021/03/20 09:24:53;;;;;;;1.73;1.63;;;;;;;;;;5015567;28;20195;-84
2021/03/20 09:28:04;;;;;;;2.03;1.58;;;;;;;;;;5033181;28;20233;-84
2021/03/20 09:30:35;;;;;;;2.17;1.30;;;;;;;;;;5024631;28;20190;-84
2021/03/20 09:33:06;;;;;;;1.15;0.98;;;;;;;;;;5033811;28;20202;-84
2021/03/20 09:35:44;;;;;;;2.03;1.30;;;;;;;;;;5035271;28;20240;-84
2021/03/20 09:38:11;;;;;;;2.42;1.30;;;;;;;;;;5033351;28;20215;-86
2021/03/20 09:40:55;;;;;;;2.22;1.30;;;;;;;;;;5034051;28;20187;-85
2021/03/20 09:43:39;;;;;;;1.85;1.50;;;;;;;;;;5032016;28;20718;-84
2021/03/20 09:46:55;;;;;;;1.65;1.30;;;;;;;;;;5032827;28;20237;-85
2021/03/20 09:49:55;;;;;;;1.10;1.08;;;;;;;;;;5032467;28;20631;-86
2021/03/20 09:52:40;;;;;;;1.83;1.02;;;;;;;;;;5032064;28;20225;-85
2021/03/20 09:55:48;;;;;;;2.15;1.35;;;;;;;;;;5035251;28;20264;-84
2021/03/20 09:58:40;;;;;;;1.85;1.13;;;;;;;;;;5027591;28;20214;-85
2021/03/20 10:01:17;;;;;;;1.65;1.00;;;;;;;;;;5034768;28;20213;-85
2021/03/20 10:03:56;;;;;;;2.28;1.50;;;;;;;;;;5041011;28;20279;-86
2021/03/20 10:06:36;;;;;;;1.20;1.10;;;;;;;;;;5039121;28;20194;-85
2021/03/20 10:09:30;;;;;;;1.08;1.00;;;;;;;;;;5033329;28;20542;-85
2021/03/20 10:12:18;;;;;;;3.80;1.17;;;;;;;;;;5030208;28;20731;-85
2021/03/20 10:15:30;;;;;;;1.67;1.25;;;;;;;;;;5031604;28;20202;-85
2021/03/20 10:18:25;;;;;;;1.00;1.00;;;;;;;;;;5031594;28;20592;-85
2021/03/20 10:21:23;;;;;;;2.13;1.13;;;;;;;;;;5034883;28;20289;-84
2021/03/20 10:24:02;;;;;;;1.52;1.42;;;;;;;;;;5032875;28;20296;-85
2021/03/20 10:26:39;;;;;;;2.15;1.30;;;;;;;;;;5036533;28;20203;-85
2021/03/20 10:29:21;;;;;;;1.35;1.25;;;;;;;;;;5033691;28;20206;-86
2021/03/20 10:31:52;;;;;;;1.92;1.38;;;;;;;;;;5035528;28;20209;-86
2021/03/20 10:34:21;;;;;;;1.95;1.70;;;;;;;;;;5033916;28;20244;-85
2021/03/20 10:37:02;;;;;;;2.70;1.67;;;;;;;;;;5036522;28;20271;-87
2021/03/20 10:39:35;;;;;;;3.47;1.60;;;;;;;;;;5035736;28;20195;-86
2021/03/20 10:42:06;;;;;;;1.45;1.35;;;;;;;;;;5036897;28;20226;-86
2021/03/20 10:44:39;;;;;;;2.65;1.50;;;;;;;;;;5035926;28;20221;-87
2021/03/20 10:47:14;;;;;;;1.65;1.55;;;;;;;;;;5038327;28;20241;-86
2021/03/20 10:49:47;;;;;;;1.83;1.70;;;;;;;;;;5019030;28;20206;-85
2021/03/20 10:52:20;;;;;;;1.52;1.42;;;;;;;;;;5019118;28;20195;-86
2021/03/20 10:54:51;;;;;;;3.70;1.65;;;;;;;;;;5019216;28;20195;-86
2021/03/20 10:57:22;;;;;;;1.70;1.60;;;;;;;;;;5019478;28;20223;-85
2021/03/20 10:59:50;;;;;;;1.15;1.05;;;;;;;;;;5031732;28;20322;-85
2021/03/20 11:02:33;;;;;;;1.83;1.60;;;;;;;;;;5034623;28;20606;-86
2021/03/20 11:05:30;;;;;;;3.53;1.52;;;;;;;;;;5038548;28;20206;-85
2021/03/20 11:08:02;;;;;;;1.38;1.27;;;;;;;;;;5021386;28;20223;-84
2021/03/20 11:10:35;;;;;;;1.27;1.20;;;;;;;;;;5019912;28;20210;-85
2021/03/20 11:13:06;;;;;;;1.38;1.27;;;;;;;;;;5019991;28;20234;-84
2021/03/20 11:15:36;;;;;;;1.65;1.40;;;;;;;;;;5018600;28;20724;-84
2021/03/20 11:18:12;;;;;;;1.27;1.17;;;;;;;;;;5017360;28;20219;-84
2021/03/20 11:20:42;;;;;;;1.48;1.38;;;;;;;;;;5017081;28;20186;-84
2021/03/20 11:23:30;;;;;;;1.98;1.38;;;;;;;;;;5017143;28;20211;-85
2021/03/20 11:26:11;;;;;;;1.55;1.40;;;;;;;;;;5017210;28;20210;-84
2021/03/20 11:28:40;;;;;;;1.63;1.25;;;;;;;;;;5017062;28;20199;-85
2021/03/20 11:31:07;;;;;;;1.77;1.52;;;;;;;;;;5017853;28;20187;-84
2021/03/20 11:33:40;;;;;;;3.22;1.30;;;;;;;;;;5017218;28;20205;-84
2021/03/20 11:36:13;;;;;;;1.40;1.30;;;;;;;;;;5017005;28;20207;-85
2021/03/20 11:38:41;;;;;;;1.38;1.25;;;;;;;;;;5016925;28;20596;-85
2021/03/20 11:41:24;;;;;;;1.30;1.20;;;;;;;;;;5016761;28;20241;-84
2021/03/20 11:44:02;;;;;;;2.90;1.60;;;;;;;;;;5016480;28;20681;-84
2021/03/20 11:46:31;;;;;;;1.83;1.42;;;;;;;;;;5017049;28;20210;-85
2021/03/20 11:49:01;;;;;;;3.67;1.88;;;;;;;;;;5017479;28;20195;-84
2021/03/20 11:51:31;;;;;;;3.88;1.50;;;;;;;;;;5016746;28;20202;-85
2021/03/20 11:54:01;;;;;;;2.83;1.63;;;;;;;;;;5026435;28;20193;-86
2021/03/20 11:56:31;;;;;;;2.25;1.45;;;;;;;;;;5032317;28;20801;-84
2021/03/20 11:59:02;;;;;;;2.58;1.80;;;;;;;;;;5034629;28;20195;-84
2021/03/20 12:01:47;;;;;;;3.00;2.30;;;;;;;;;;5032894;28;20638;-84
2021/03/20 12:04:22;;;;;;;3.08;1.60;;;;;;;;;;5033022;28;20210;-85
2021/03/20 12:06:51;;;;;;;1.88;1.50;;;;;;;;;;5032837;28;20584;-85
2021/03/20 12:09:35;;;;;;;6.05;1.52;;;;;;;;;;5034795;28;20198;-85
2021/03/20 12:12:07;;;;;;;1.85;1.58;;;;;;;;;;5034360;28;20203;-85
2021/03/20 12:14:40;;;;;;;2.17;1.90;;;;;;;;;;5033743;28;20225;-84
2021/03/20 12:17:22;;;;;;;2.35;1.60;;;;;;;;;;5032845;28;20242;-85
2021/03/20 12:20:02;;;;;;;1.95;1.45;;;;;;;;;;5032713;28;20237;-85
2021/03/20 12:22:44;;;;;;;1.83;1.30;;;;;;;;;;5032663;28;20191;-84
2021/03/20 12:25:33;;;;;;;1.77;1.50;;;;;;;;;;5032815;28;20217;-85
2021/03/20 12:28:34;;;;;;;1.70;1.38;;;;;;;;;;5034999;28;20301;-85
2021/03/20 12:31:29;;;;;;;2.33;1.52;;;;;;;;;;5034575;28;20256;-85
2021/03/20 12:34:00;;;;;;;2.05;1.90;;;;;;;;;;5029152;28;20214;-85
2021/03/20 12:36:39;;;;;;;1.95;1.27;;;;;;;;;;5034095;28;20672;-86
2021/03/20 12:39:10;;;;;;;2.47;1.40;;;;;;;;;;5032423;28;20194;-85
2021/03/20 12:41:40;;;;;;;1.10;1.10;;;;;;;;;;5033644;28;20195;-85
2021/03/20 12:44:14;;;;;;;1.63;1.52;;;;;;;;;;5033664;28;20218;-85
2021/03/20 12:46:44;;;;;;;2.05;1.42;;;;;;;;;;5033696;28;20222;-86
2021/03/20 12:49:18;;;;;;;1.95;1.40;;;;;;;;;;5033681;28;20249;-85
2021/03/20 12:51:48;;;;;;;1.35;1.25;;;;;;;;;;5032538;28;20187;-85
2021/03/20 12:54:24;;;;;;;3.20;1.38;;;;;;;;;;5034797;28;20178;-85
2021/03/20 12:56:51;;;;;;;1.00;1.00;;;;;;;;;;5033928;28;20218;-84
2021/03/20 12:59:20;;;;;;;2.15;1.20;;;;;;;;;;5030998;28;20649;-85
2021/03/20 13:01:49;;;;;;;1.83;1.00;;;;;;;;;;5033573;28;20190;-85
2021/03/20 13:04:18;;;;;;;1.48;1.27;;;;;;;;;;5032741;28;20218;-84
2021/03/20 13:06:45;;;;;;;1.65;1.38;;;;;;;;;;5033191;28;20218;-84
2021/03/20 13:09:14;;;;;;;3.17;1.67;;;;;;;;;;5033470;28;20252;-85
2021/03/20 13:11:41;;;;;;;3.00;1.40;;;;;;;;;;5031368;28;20194;-84
2021/03/20 13:14:08;;;;;;;1.33;1.23;;;;;;;;;;5033625;28;20322;-84
2021/03/20 13:16:36;;;;;;;1.55;1.25;;;;;;;;;;5032923;28;20225;-84
2021/03/20 13:19:04;;;;;;;1.48;1.30;;;;;;;;;;5033109;28;20587;-84
2021/03/20 13:21:32;;;;;;;2.42;1.73;;;;;;;;;;5033683;28;20742;-84
2021/03/20 13:23:59;;;;;;;2.22;1.48;;;;;;;;;;5033933;28;20214;-84
2021/03/20 13:26:27;;;;;;;2.85;1.60;;;;;;;;;;5033123;28;20260;-84
2021/03/20 13:28:56;;;;;;;1.27;1.27;;;;;;;;;;5033661;28;20252;-85
2021/03/20 13:31:24;;;;;;;2.05;1.52;;;;;;;;;;5033681;28;20190;-84
2021/03/20 13:33:51;;;;;;;1.52;1.40;;;;;;;;;;5034082;28;20202;-85
2021/03/20 13:36:19;;;;;;;1.20;1.10;;;;;;;;;;5033807;28;20194;-84
2021/03/20 13:38:46;;;;;;;1.50;1.40;;;;;;;;;;5034188;28;20186;-84
2021/03/20 13:41:13;;;;;;;1.25;1.15;;;;;;;;;;5033941;28;20195;-84
2021/03/20 13:43:40;;;;;;;1.63;1.52;;;;;;;;;;5034304;28;20195;-84
2021/03/20 13:46:07;;;;;;;1.60;1.48;;;;;;;;;;5034557;28;20186;-84
2021/03/20 13:48:36;;;;;;;1.40;1.30;;;;;;;;;;5033975;28;20595;-84
2021/03/20 13:51:07;;;;;;;1.92;1.50;;;;;;;;;;5034307;28;20214;-84
2021/03/20 13:53:37;;;;;;;1.67;1.30;;;;;;;;;;5033972;28;20592;-84
2021/03/20 13:56:07;;;;;;;1.60;1.50;;;;;;;;;;5030960;28;20187;-83
2021/03/20 13:58:40;;;;;;;2.15;1.30;;;;;;;;;;5033389;28;20680;-84
2021/03/20 14:01:07;;;;;;;1.60;1.50;;;;;;;;;;5032716;28;20946;-84
2021/03/20 14:03:35;;;;;;;1.42;1.10;;;;;;;;;;5032457;28;20190;-84
2021/03/20 14:06:05;;;;;;;2.60;1.98;;;;;;;;;;5032866;28;20198;-84
2021/03/20 14:08:32;;;;;;;1.50;1.40;;;;;;;;;;5029995;28;20664;-84
2021/03/20 14:11:03;;;;;;;1.10;1.10;;;;;;;;;;5032572;28;20191;-84
2021/03/20 14:13:30;;;;;;;1.63;1.42;;;;;;;;;;5030102;28;20183;-84
2021/03/20 14:15:58;;;;;;;1.50;1.40;;;;;;;;;;5032003;28;20201;-83
2021/03/20 14:18:27;;;;;;;1.35;1.25;;;;;;;;;;5032109;28;20230;-84
2021/03/20 14:20:59;;;;;;;1.50;1.38;;;;;;;;;;5033192;28;20260;-84
2021/03/20 14:23:27;;;;;;;1.35;1.25;;;;;;;;;;5032296;28;20190;-84
2021/03/20 14:25:54;;;;;;;3.42;1.35;;;;;;;;;;5032543;28;20218;-83
2021/03/20 14:28:28;;;;;;;2.17;1.25;;;;;;;;;;5032705;28;20845;-84
2021/03/20 14:30:59;;;;;;;1.77;1.67;;;;;;;;;;5032822;28;20213;-84
2021/03/20 14:33:29;;;;;;;1.83;1.42;;;;;;;;;;5033056;28;20210;-84
2021/03/20 14:35:59;;;;;;;1.75;1.65;;;;;;;;;;5032883;28;20256;-84
2021/03/20 14:38:29;;;;;;;1.10;1.10;;;;;;;;;;5032116;28;20316;-85
2021/03/20 14:40:59;;;;;;;1.80;1.30;;;;;;;;;;5031424;28;20203;-86
2021/03/20 14:43:28;;;;;;;2.95;1.10;;;;;;;;;;5031962;28;20190;-84
2021/03/20 14:45:55;;;;;;;1.27;1.27;;;;;;;;;;5028904;28;20228;-84
2021/03/20 14:48:27;;;;;;;1.35;1.25;;;;;;;;;;5032309;28;20218;-84
2021/03/20 14:50:54;;;;;;;1.25;1.10;;;;;;;;;;5032621;28;20738;-84
2021/03/20 14:53:25;;;;;;;1.40;1.30;;;;;;;;;;5033001;28;20202;-84
2021/03/20 14:55:52;;;;;;;2.15;1.65;;;;;;;;;;5032732;28;20199;-84
2021/03/20 14:58:19;;;;;;;2.00;1.10;;;;;;;;;;5032726;28;20221;-84
2021/03/20 15:00:51;;;;;;;1.17;1.10;;;;;;;;;;5032837;28;20209;-84
2021/03/20 15:03:18;;;;;;;1.45;1.30;;;;;;;;;;5032663;28;20260;-84
2021/03/20 15:05:46;;;;;;;1.67;1.40;;;;;;;;;;5032872;28;20218;-83
2021/03/20 15:08:18;;;;;;;2.92;1.67;;;;;;;;;;5033079;28;20210;-84
2021/03/20 15:10:49;;;;;;;1.33;1.23;;;;;;;;;;5033666;28;20191;-85
2021/03/20 15:13:16;;;;;;;0.93;0.93;;;;;;;;;;5033508;28;20195;-84
2021/03/20 15:15:43;;;;;;;2.80;1.58;;;;;;;;;;5032363;28;20533;-84
2021/03/20 15:18:18;;;;;;;1.20;1.17;;;;;;;;;;5032040;28;20218;-84
2021/03/20 15:20:45;;;;;;;1.83;1.73;;;;;;;;;;5032642;28;20593;-84
2021/03/20 15:23:12;;;;;;;1.70;1.38;;;;;;;;;;5032353;28;20206;-83
2021/03/20 15:25:39;;;;;;;1.63;1.50;;;;;;;;;;5026870;28;20218;-84
2021/03/20 15:28:06;;;;;;;1.50;1.40;;;;;;;;;;5031958;28;20226;-85